createdAt,value
2023-06-17T00:00:58.918Z,10.52
2023-06-17T00:03:26.143Z,10.98
2023-06-17T00:05:53.542Z,10.60
2023-06-17T00:08:21.462Z,9.90
2023-06-17T00:10:48.889Z,10.02
2023-06-17T00:13:22.279Z,10.60
2023-06-17T00:15:52.380Z,9.77
2023-06-17T00:18:21.231Z,10.80
2023-06-17T00:20:49.614Z,10.40
2023-06-17T00:23:17.057Z,10.18
2023-06-17T00:25:44.241Z,10.80
2023-06-17T00:28:11.441Z,10.13
2023-06-17T00:30:38.568Z,10.95
2023-06-17T00:33:06.385Z,10.48
2023-06-17T00:35:36.228Z,11.10
2023-06-17T00:38:03.454Z,10.10
2023-06-17T00:40:33.182Z,10.82
2023-06-17T00:43:00.512Z,11.05
2023-06-17T00:45:27.692Z,11.25
2023-06-17T00:47:55.060Z,11.25
2023-06-17T00:50:22.710Z,10.90
2023-06-17T00:52:54.061Z,11.20
2023-06-17T00:55:22.485Z,11.32
2023-06-17T00:57:50.112Z,11.15
2023-06-17T01:00:17.562Z,10.73
2023-06-17T01:02:46.653Z,11.02
2023-06-17T01:05:18.471Z,11.70
2023-06-17T01:08:04.234Z,11.63
2023-06-17T01:10:41.557Z,10.88
2023-06-17T01:13:10.523Z,12.65
2023-06-17T01:15:38.335Z,11.93
2023-06-17T01:18:08.529Z,11.13
2023-06-17T01:20:37.462Z,11.68
2023-06-17T01:23:06.759Z,12.30
2023-06-17T01:25:36.048Z,11.65
2023-06-17T01:28:20.731Z,11.15
2023-06-17T01:30:49.418Z,11.98
2023-06-17T01:33:17.244Z,11.45
2023-06-17T01:35:56.209Z,12.00
2023-06-17T01:38:52.353Z,12.43
2023-06-17T01:41:25.635Z,10.98
2023-06-17T01:43:55.304Z,12.15
2023-06-17T01:46:23.854Z,11.23
2023-06-17T01:48:54.979Z,11.93
2023-06-17T01:51:22.524Z,11.15
2023-06-17T01:53:49.858Z,10.55
2023-06-17T01:56:16.961Z,11.60
2023-06-17T01:58:44.100Z,11.40
2023-06-17T02:01:12.688Z,10.52
2023-06-17T02:03:43.605Z,11.05
2023-06-17T02:06:11.794Z,11.60
2023-06-17T02:08:39.770Z,10.38
2023-06-17T02:11:07.198Z,11.50
2023-06-17T02:13:34.479Z,10.55
2023-06-17T02:16:01.883Z,11.65
2023-06-17T02:18:29.436Z,11.32
2023-06-17T02:20:56.606Z,11.18
2023-06-17T02:23:23.818Z,11.02
2023-06-17T02:25:53.752Z,10.88
2023-06-17T02:28:20.898Z,11.52
2023-06-17T02:30:48.133Z,12.23
2023-06-17T02:33:19.353Z,12.55
2023-06-17T02:35:47.528Z,12.85
2023-06-17T02:38:15.591Z,12.02
2023-06-17T02:40:42.871Z,12.40
2023-06-17T02:43:10.200Z,11.80
2023-06-17T02:45:37.976Z,11.38
2023-06-17T02:48:05.217Z,12.25
2023-06-17T02:50:32.421Z,11.45
2023-06-17T02:52:59.880Z,11.98
2023-06-17T02:55:30.728Z,10.82
2023-06-17T02:58:02.270Z,11.07
2023-06-17T03:00:37.330Z,11.10
2023-06-17T03:03:04.586Z,10.60
2023-06-17T03:05:31.928Z,9.93
2023-06-17T03:07:59.095Z,9.68
2023-06-17T03:10:26.284Z,9.98
2023-06-17T03:15:30.000Z,10.65
2023-06-17T03:17:57.976Z,10.15
2023-06-17T03:20:29.907Z,10.57
2023-06-17T03:22:57.424Z,10.43
2023-06-17T03:25:24.744Z,9.80
2023-06-17T03:27:54.098Z,11.82
2023-06-17T03:30:24.633Z,11.52
2023-06-17T03:32:51.949Z,11.95
2023-06-17T03:35:19.129Z,12.55
2023-06-17T03:37:46.443Z,12.48
2023-06-17T03:40:14.993Z,12.38
2023-06-17T03:42:43.388Z,11.73
2023-06-17T03:45:11.335Z,12.50
2023-06-17T03:47:38.730Z,11.73
2023-06-17T03:50:07.716Z,10.75
2023-06-17T03:52:35.283Z,9.82
2023-06-17T03:55:02.944Z,9.68
2023-06-17T03:57:31.090Z,9.60
2023-06-17T03:59:58.739Z,9.23
2023-06-17T04:02:26.187Z,9.20
2023-06-17T04:04:53.980Z,8.68
2023-06-17T04:07:22.104Z,9.75
2023-06-17T04:10:01.967Z,8.52
2023-06-17T04:12:36.697Z,9.05
2023-06-17T04:15:07.845Z,8.55
2023-06-17T04:17:39.363Z,8.98
2023-06-17T04:20:16.152Z,9.40
2023-06-17T04:22:44.529Z,8.95
2023-06-17T04:25:13.344Z,8.75
2023-06-17T04:27:45.741Z,9.65
2023-06-17T04:30:15.201Z,9.10
2023-06-17T04:32:44.024Z,9.35
2023-06-17T04:35:14.148Z,8.38
2023-06-17T04:37:55.187Z,8.60
2023-06-17T04:40:26.660Z,9.85
2023-06-17T04:42:54.101Z,8.52
2023-06-17T04:45:23.604Z,8.07
2023-06-17T04:47:56.932Z,7.90
2023-06-17T04:50:25.187Z,8.45
2023-06-17T04:52:53.262Z,8.23
2023-06-17T04:55:23.400Z,8.05
2023-06-17T04:57:51.517Z,7.68
2023-06-17T05:00:38.541Z,8.68
2023-06-17T05:03:06.897Z,7.85
2023-06-17T05:05:34.131Z,7.55
2023-06-17T05:08:01.296Z,7.78
2023-06-17T05:10:28.623Z,8.18
2023-06-17T05:12:55.770Z,8.45
2023-06-17T05:15:23.148Z,8.85
2023-06-17T05:17:51.099Z,7.90
2023-06-17T05:20:18.912Z,8.43
2023-06-17T05:22:46.793Z,8.32
2023-06-17T05:25:14.002Z,8.88
2023-06-17T05:27:41.200Z,8.52
2023-06-17T05:30:10.045Z,7.85
2023-06-17T05:32:41.090Z,7.65
2023-06-17T05:35:08.782Z,7.63
2023-06-17T05:37:35.944Z,7.93
2023-06-17T05:40:05.071Z,7.93
2023-06-17T05:42:33.931Z,8.07
2023-06-17T05:45:01.289Z,7.60
2023-06-17T05:47:31.813Z,7.53
2023-06-17T05:49:58.964Z,7.50
2023-06-17T05:52:28.135Z,8.40
2023-06-17T05:54:55.261Z,7.63
2023-06-17T05:57:22.636Z,7.50
2023-06-17T05:59:49.982Z,8.23
2023-06-17T06:02:18.505Z,7.45
2023-06-17T06:04:45.737Z,7.57
2023-06-17T06:07:13.853Z,6.95
2023-06-17T06:09:41.350Z,6.72
2023-06-17T06:12:09.083Z,7.30
2023-06-17T06:14:37.075Z,6.93
2023-06-17T06:17:05.717Z,7.25
2023-06-17T06:19:32.835Z,7.32
2023-06-17T06:21:59.968Z,7.18
2023-06-17T06:24:27.197Z,6.82
2023-06-17T06:26:54.478Z,7.07
2023-06-17T06:29:22.096Z,6.60
2023-06-17T06:31:49.243Z,7.70
2023-06-17T06:34:18.812Z,7.03
2023-06-17T06:36:46.853Z,6.80
2023-06-17T06:39:15.633Z,7.13
2023-06-17T06:41:43.635Z,7.20
2023-06-17T06:44:26.928Z,7.38
2023-06-17T06:46:56.808Z,7.40
2023-06-17T06:49:23.999Z,7.18
2023-06-17T06:51:51.176Z,6.97
2023-06-17T06:54:18.551Z,6.80
2023-06-17T06:56:46.520Z,7.50
2023-06-17T06:59:13.849Z,6.95
2023-06-17T07:01:40.971Z,6.75
2023-06-17T07:04:08.538Z,6.82
2023-06-17T07:06:36.396Z,6.97
2023-06-17T07:09:07.637Z,7.22
2023-06-17T07:11:35.808Z,7.00
2023-06-17T07:14:03.269Z,6.90
2023-06-17T07:16:31.070Z,7.22
2023-06-17T07:18:58.290Z,7.18
2023-06-17T07:21:25.551Z,7.30
2023-06-17T07:23:52.787Z,8.13
2023-06-17T07:26:21.216Z,6.90
2023-06-17T07:28:48.798Z,6.57
2023-06-17T07:31:16.025Z,7.00
2023-06-17T07:33:43.193Z,7.40
2023-06-17T07:36:10.337Z,6.53
2023-06-17T07:38:37.832Z,6.38
2023-06-17T07:41:05.044Z,6.95
2023-06-17T07:43:32.227Z,6.80
2023-06-17T07:45:59.449Z,6.88
2023-06-17T07:48:26.635Z,7.03
2023-06-17T07:50:53.741Z,7.22
2023-06-17T07:53:21.185Z,6.75
2023-06-17T07:55:49.199Z,6.80
2023-06-17T07:58:16.427Z,6.80
2023-06-17T08:00:43.616Z,6.35
2023-06-17T08:03:11.107Z,6.65
2023-06-17T08:05:38.337Z,6.32
2023-06-17T08:08:05.683Z,6.15
2023-06-17T08:10:33.045Z,6.40
2023-06-17T08:13:00.176Z,6.80
2023-06-17T08:15:28.425Z,6.57
2023-06-17T08:17:55.778Z,6.50
2023-06-17T08:20:23.321Z,6.57
2023-06-17T08:22:50.832Z,6.50
2023-06-17T08:25:17.958Z,6.75
2023-06-17T08:27:49.202Z,8.30
2023-06-17T08:30:16.459Z,7.53
2023-06-17T08:32:43.782Z,6.50
2023-06-17T08:35:11.067Z,6.22
2023-06-17T08:37:38.186Z,6.35
2023-06-17T08:40:05.870Z,6.47
2023-06-17T08:42:34.143Z,6.22
2023-06-17T08:45:01.761Z,6.18
2023-06-17T08:47:33.586Z,6.30
2023-06-17T08:50:01.183Z,6.00
2023-06-17T08:52:34.547Z,6.18
2023-06-17T08:55:03.005Z,6.60
2023-06-17T08:57:33.592Z,7.60
2023-06-17T09:00:01.144Z,7.95
2023-06-17T09:02:35.703Z,6.43
2023-06-17T09:05:03.667Z,6.57
2023-06-17T09:07:32.085Z,6.43
2023-06-17T09:10:10.214Z,6.43
2023-06-17T09:12:40.666Z,6.50
2023-06-17T09:15:09.553Z,6.90
2023-06-17T09:17:40.195Z,8.07
2023-06-17T09:20:17.732Z,8.05
2023-06-17T09:22:47.911Z,8.38
2023-06-17T09:25:16.432Z,7.05
2023-06-17T09:30:25.392Z,7.20
2023-06-17T09:32:53.780Z,6.65
2023-06-17T09:35:21.215Z,6.30
2023-06-17T09:38:03.253Z,6.47
2023-06-17T09:40:34.317Z,6.15
2023-06-17T09:43:20.735Z,6.72
2023-06-17T09:45:56.125Z,6.90
2023-06-17T09:48:26.183Z,6.95
2023-06-17T09:50:58.628Z,7.75
2023-06-17T09:53:30.922Z,6.85
2023-06-17T09:56:01.359Z,7.60
2023-06-17T09:58:30.527Z,6.93
2023-06-17T10:00:58.813Z,7.13
2023-06-17T10:03:26.104Z,6.75
2023-06-17T10:05:56.512Z,6.68
2023-06-17T10:08:25.337Z,7.63
2023-06-17T10:10:53.049Z,7.30
2023-06-17T10:13:21.762Z,7.97
2023-06-17T10:15:50.864Z,7.53
2023-06-17T10:18:20.151Z,7.53
2023-06-17T10:20:50.475Z,7.40
2023-06-17T10:23:22.088Z,6.97
2023-06-17T10:25:49.343Z,7.55
2023-06-17T10:28:17.076Z,7.55
2023-06-17T10:30:46.153Z,7.90
2023-06-17T10:33:13.774Z,8.13
2023-06-17T10:35:45.621Z,7.43
2023-06-17T10:38:34.723Z,8.10
2023-06-17T10:41:02.985Z,8.20
2023-06-17T10:43:37.556Z,8.15
2023-06-17T10:46:05.071Z,7.45
2023-06-17T10:48:36.693Z,8.30
2023-06-17T10:51:09.872Z,8.75
2023-06-17T10:53:38.012Z,8.73
2023-06-17T10:56:08.235Z,8.55
2023-06-17T10:58:37.501Z,7.53
2023-06-17T11:01:07.407Z,7.85
2023-06-17T11:03:35.991Z,8.00
2023-06-17T11:06:05.136Z,7.80
2023-06-17T11:08:33.942Z,7.68
2023-06-17T11:11:18.151Z,8.00
2023-06-17T11:13:51.978Z,8.32
2023-06-17T11:16:19.774Z,8.20
2023-06-17T11:18:49.995Z,8.77
2023-06-17T11:21:18.883Z,7.47
2023-06-17T11:23:46.142Z,7.65
2023-06-17T11:26:14.414Z,8.20
2023-06-17T11:28:41.740Z,8.15
2023-06-17T11:31:09.490Z,8.10
2023-06-17T11:33:40.003Z,7.95
2023-06-17T11:36:11.312Z,8.38
2023-06-17T11:38:39.550Z,8.88
2023-06-17T11:41:06.949Z,8.70
2023-06-17T11:43:34.254Z,8.90
2023-06-17T11:46:03.556Z,8.40
2023-06-17T11:48:35.043Z,8.48
2023-06-17T11:51:02.822Z,8.80
2023-06-17T11:53:39.646Z,8.70
2023-06-17T11:56:08.340Z,9.02
2023-06-17T11:58:39.905Z,9.15
2023-06-17T12:01:08.648Z,9.65
2023-06-17T12:03:38.234Z,9.73
2023-06-17T12:06:06.300Z,8.90
2023-06-17T12:08:35.359Z,9.55
2023-06-17T12:11:26.643Z,9.45
2023-06-17T12:13:55.707Z,9.75
2023-06-17T12:16:25.037Z,10.20
2023-06-17T12:18:53.761Z,10.35
2023-06-17T12:21:22.328Z,10.05
2023-06-17T12:23:54.567Z,10.20
2023-06-17T12:26:26.086Z,10.20
2023-06-17T12:28:54.493Z,9.68
2023-06-17T12:31:23.251Z,10.88
2023-06-17T12:33:51.099Z,10.52
2023-06-17T12:36:18.928Z,10.90
2023-06-17T12:38:47.353Z,10.98
2023-06-17T12:41:14.473Z,11.32
2023-06-17T12:43:42.333Z,10.70
2023-06-17T12:46:09.961Z,11.25
2023-06-17T12:48:37.502Z,11.43
2023-06-17T12:51:05.121Z,11.05
2023-06-17T12:53:32.388Z,10.88
2023-06-17T12:56:00.240Z,12.02
2023-06-17T12:58:27.771Z,10.48
2023-06-17T13:00:55.606Z,10.90
2023-06-17T13:03:22.914Z,11.00
2023-06-17T13:05:52.772Z,10.65
2023-06-17T13:08:20.095Z,11.63
2023-06-17T13:10:47.812Z,10.85
2023-06-17T13:13:14.994Z,10.82
2023-06-17T13:15:42.177Z,10.48
2023-06-17T13:18:09.740Z,10.25
2023-06-17T13:20:37.230Z,10.43
2023-06-17T13:23:05.698Z,11.57
2023-06-17T13:25:33.032Z,10.45
2023-06-17T13:28:00.250Z,11.00
2023-06-17T13:30:27.580Z,10.00
2023-06-17T13:32:54.715Z,11.05
2023-06-17T13:35:22.603Z,11.65
2023-06-17T13:37:50.533Z,10.88
2023-06-17T13:40:18.055Z,11.35
2023-06-17T13:42:45.344Z,10.27
2023-06-17T13:45:17.147Z,11.18
2023-06-17T13:47:44.234Z,10.48
2023-06-17T13:50:11.467Z,10.77
2023-06-17T13:52:38.615Z,10.63
2023-06-17T13:55:06.139Z,10.90
2023-06-17T13:57:33.198Z,10.70
2023-06-17T14:00:00.449Z,11.10
2023-06-17T14:02:27.703Z,11.10
2023-06-17T14:04:55.707Z,10.90
2023-06-17T14:07:22.902Z,10.57
2023-06-17T14:09:50.027Z,10.32
2023-06-17T14:12:17.245Z,10.38
2023-06-17T14:14:46.168Z,9.77
2023-06-17T14:17:14.490Z,10.15
2023-06-17T14:19:41.581Z,10.40
2023-06-17T14:22:10.269Z,10.65
2023-06-17T14:24:39.876Z,10.50
2023-06-17T14:27:34.796Z,10.82
2023-06-17T14:30:03.517Z,10.98
2023-06-17T14:32:35.052Z,9.45
2023-06-17T14:35:02.297Z,9.75
2023-06-17T14:37:33.957Z,10.43
2023-06-17T14:40:01.590Z,10.00
2023-06-17T14:42:32.560Z,10.90
2023-06-17T14:44:59.936Z,10.60
2023-06-17T14:47:27.420Z,9.73
2023-06-17T14:49:54.556Z,9.80
2023-06-17T14:52:21.628Z,10.20
2023-06-17T14:54:48.727Z,10.32
2023-06-17T14:57:15.809Z,9.80
2023-06-17T14:59:43.196Z,10.15
2023-06-17T15:02:22.671Z,10.50
2023-06-17T15:04:49.879Z,10.27
2023-06-17T15:07:16.996Z,9.55
2023-06-17T15:09:44.638Z,9.90
2023-06-17T15:12:15.397Z,9.85
2023-06-17T15:14:42.675Z,10.10
2023-06-17T15:17:09.868Z,8.43
2023-06-17T15:19:37.991Z,9.25
2023-06-17T15:22:05.515Z,9.60
2023-06-17T15:24:32.808Z,9.65
2023-06-17T15:27:00.102Z,9.02
2023-06-17T15:29:27.253Z,8.50
2023-06-17T15:31:54.350Z,8.25
2023-06-17T15:34:21.521Z,8.60
2023-06-17T15:36:48.659Z,8.60
2023-06-17T15:39:19.776Z,7.80
2023-06-17T15:41:48.520Z,8.38
2023-06-17T15:44:16.875Z,8.40
2023-06-17T15:46:44.525Z,8.07
2023-06-17T15:49:12.070Z,7.93
2023-06-17T15:51:39.593Z,7.70
2023-06-17T15:54:07.132Z,8.65
2023-06-17T15:56:37.725Z,7.72
2023-06-17T15:59:05.790Z,7.57
2023-06-17T16:01:33.711Z,7.55
2023-06-17T16:04:30.260Z,7.43
2023-06-17T16:06:57.332Z,7.60
2023-06-17T16:09:24.458Z,7.93
2023-06-17T16:11:51.870Z,7.32
2023-06-17T16:14:19.008Z,7.55
2023-06-17T16:16:46.162Z,7.95
2023-06-17T16:19:13.372Z,7.40
2023-06-17T16:21:40.588Z,7.60
2023-06-17T16:24:07.821Z,8.38
2023-06-17T16:26:35.051Z,8.07
2023-06-17T16:29:02.103Z,8.23
2023-06-17T16:31:29.190Z,7.60
2023-06-17T16:33:56.326Z,7.80
2023-06-17T16:36:23.594Z,7.95
2023-06-17T16:38:50.698Z,7.63
2023-06-17T16:41:17.810Z,7.40
2023-06-17T16:43:44.911Z,7.28
2023-06-17T16:46:12.148Z,8.13
2023-06-17T16:48:39.233Z,8.10
2023-06-17T16:51:07.273Z,7.57
2023-06-17T16:53:35.115Z,7.82
2023-06-17T16:56:02.656Z,7.57
2023-06-17T16:58:30.078Z,7.70
2023-06-17T17:00:57.463Z,7.43
2023-06-17T17:03:24.927Z,7.00
2023-06-17T17:05:52.189Z,7.50
2023-06-17T17:08:19.590Z,7.63
2023-06-17T17:10:46.803Z,7.25
2023-06-17T17:13:14.005Z,7.32
2023-06-17T17:15:41.668Z,7.53
2023-06-17T17:18:09.096Z,7.40
2023-06-17T17:20:36.248Z,7.00
2023-06-17T17:23:04.188Z,7.72
2023-06-17T17:25:31.867Z,6.95
2023-06-17T17:27:58.977Z,7.47
2023-06-17T17:30:26.215Z,6.50
2023-06-17T17:32:55.488Z,6.72
2023-06-17T17:35:23.120Z,7.20
2023-06-17T17:37:50.229Z,7.10
2023-06-17T17:40:17.891Z,7.20
2023-06-17T17:42:46.459Z,7.60
2023-06-17T17:45:13.607Z,7.05
2023-06-17T17:47:40.812Z,6.75
2023-06-17T17:50:08.357Z,6.47
2023-06-17T17:52:35.690Z,7.22
2023-06-17T17:55:03.200Z,6.32
2023-06-17T17:57:33.026Z,6.53
2023-06-17T18:00:00.264Z,7.25
2023-06-17T18:02:27.577Z,7.85
2023-06-17T18:04:55.313Z,6.55
2023-06-17T18:07:22.412Z,6.35
2023-06-17T18:09:49.524Z,6.45
2023-06-17T18:12:17.077Z,6.80
2023-06-17T18:14:44.206Z,6.57
2023-06-17T18:17:11.277Z,6.28
2023-06-17T18:19:39.926Z,6.60
2023-06-17T18:22:07.002Z,7.60
2023-06-17T18:24:34.402Z,6.28
2023-06-17T18:27:01.780Z,7.15
2023-06-17T18:29:28.976Z,6.80
2023-06-17T18:31:56.095Z,6.93
2023-06-17T18:34:23.240Z,7.43
2023-06-17T18:36:50.539Z,7.82
2023-06-17T18:39:17.762Z,7.53
2023-06-17T18:41:44.937Z,6.85
2023-06-17T18:44:13.558Z,8.60
2023-06-17T18:46:41.267Z,7.05
2023-06-17T18:49:11.085Z,8.23
2023-06-17T18:51:38.439Z,7.13
2023-06-17T18:54:05.656Z,7.03
2023-06-17T18:56:32.829Z,7.05
2023-06-17T18:59:00.008Z,7.13
2023-06-17T19:01:27.215Z,6.80
2023-06-17T19:03:54.452Z,7.18
2023-06-17T19:06:21.619Z,6.97
2023-06-17T19:08:49.746Z,6.63
2023-06-17T19:11:17.524Z,7.03
2023-06-17T19:13:44.717Z,7.00
2023-06-17T19:16:12.203Z,6.82
2023-06-17T19:18:39.924Z,6.93
2023-06-17T19:21:08.596Z,7.07
2023-06-17T19:23:35.834Z,7.60
2023-06-17T19:26:02.979Z,7.15
2023-06-17T19:28:30.117Z,7.15
2023-06-17T19:30:57.248Z,7.03
2023-06-17T19:33:24.492Z,7.43
2023-06-17T19:35:51.582Z,7.15
2023-06-17T19:38:18.744Z,7.28
2023-06-17T19:40:45.958Z,7.30
2023-06-17T19:43:14.101Z,7.13
2023-06-17T19:45:44.797Z,6.90
2023-06-17T19:48:12.100Z,6.78
2023-06-17T19:50:39.231Z,7.43
2023-06-17T19:53:07.013Z,7.30
2023-06-17T19:55:34.664Z,6.63
2023-06-17T19:58:01.861Z,6.00
2023-06-17T20:00:29.994Z,6.65
2023-06-17T20:02:57.292Z,6.03
2023-06-17T20:05:24.456Z,6.63
2023-06-17T20:07:51.831Z,5.30
2023-06-17T20:10:19.250Z,5.95
2023-06-17T20:12:46.493Z,6.28
2023-06-17T20:15:13.659Z,5.55
2023-06-17T20:17:41.000Z,5.70
2023-06-17T20:20:08.739Z,6.45
2023-06-17T20:22:36.047Z,6.40
2023-06-17T20:25:03.227Z,5.28
2023-06-17T20:27:33.214Z,5.45
2023-06-17T20:30:00.369Z,5.40
2023-06-17T20:32:27.653Z,5.20
2023-06-17T20:34:54.819Z,4.97
2023-06-17T20:37:21.977Z,4.95
2023-06-17T20:39:49.065Z,4.45
2023-06-17T20:42:16.392Z,4.63
2023-06-17T20:44:43.632Z,4.85
2023-06-17T20:47:11.098Z,4.75
2023-06-17T20:49:38.298Z,4.68
2023-06-17T20:52:05.635Z,5.10
2023-06-17T20:54:32.726Z,5.03
2023-06-17T20:56:59.815Z,4.93
2023-06-17T20:59:27.037Z,4.95
2023-06-17T21:01:54.217Z,4.82
2023-06-17T21:04:21.392Z,5.00
2023-06-17T21:06:48.529Z,4.53
2023-06-17T21:09:15.900Z,4.63
2023-06-17T21:11:43.004Z,4.53
2023-06-17T21:14:10.135Z,4.80
2023-06-17T21:16:37.489Z,4.53
2023-06-17T21:19:04.741Z,4.20
2023-06-17T21:21:31.862Z,4.53
2023-06-17T21:23:59.123Z,4.90
2023-06-17T21:26:26.934Z,4.60
2023-06-17T21:28:56.078Z,4.88
2023-06-17T21:31:23.181Z,4.93
2023-06-17T21:33:51.507Z,4.90
2023-06-17T21:36:18.734Z,4.53
2023-06-17T21:38:45.839Z,4.75
2023-06-17T21:41:12.908Z,4.20
2023-06-17T21:43:40.092Z,4.70
2023-06-17T21:46:08.072Z,5.00
2023-06-17T21:48:35.312Z,4.43
2023-06-17T21:51:02.505Z,4.60
2023-06-17T21:53:29.571Z,5.10
2023-06-17T21:55:56.734Z,4.45
2023-06-17T21:58:23.921Z,5.07
2023-06-17T22:00:51.049Z,4.65
2023-06-17T22:03:23.429Z,4.85
2023-06-17T22:05:52.014Z,4.80
2023-06-17T22:08:24.556Z,4.55
2023-06-17T22:10:54.698Z,4.20
2023-06-17T22:13:21.841Z,5.18
2023-06-17T22:15:49.006Z,4.25
2023-06-17T22:18:16.291Z,4.57
2023-06-17T22:20:43.961Z,4.80
2023-06-17T22:23:11.206Z,4.78
2023-06-17T22:25:38.316Z,4.60
2023-06-17T22:28:05.490Z,4.03
2023-06-17T22:30:32.589Z,4.60
2023-06-17T22:32:59.718Z,4.50
2023-06-17T22:35:27.406Z,4.97
2023-06-17T22:37:54.728Z,3.90
2023-06-17T22:40:24.692Z,4.32
2023-06-17T22:42:51.872Z,4.00
2023-06-17T22:45:19.075Z,4.38
2023-06-17T22:47:46.241Z,3.85
2023-06-17T22:50:13.422Z,4.63
2023-06-17T22:52:40.640Z,4.35
2023-06-17T22:55:08.176Z,4.53
2023-06-17T22:57:39.199Z,4.68
2023-06-17T23:00:08.223Z,4.47
2023-06-17T23:02:36.417Z,4.50
2023-06-17T23:05:05.353Z,4.88
2023-06-17T23:07:32.825Z,4.53
2023-06-17T23:10:00.209Z,4.78
2023-06-17T23:12:27.546Z,4.25
2023-06-17T23:14:54.867Z,4.13
2023-06-17T23:17:22.351Z,4.47
2023-06-17T23:19:49.648Z,4.60
2023-06-17T23:22:17.507Z,4.70
2023-06-17T23:24:47.703Z,4.38
2023-06-17T23:27:16.645Z,4.90
2023-06-17T23:29:44.384Z,4.85
2023-06-17T23:32:11.516Z,4.82
2023-06-17T23:34:38.640Z,5.60
2023-06-17T23:37:06.720Z,4.90
2023-06-17T23:39:33.823Z,5.88
2023-06-17T23:42:00.881Z,5.63
2023-06-17T23:44:28.000Z,4.93
2023-06-17T23:46:55.411Z,5.20
2023-06-17T23:49:22.591Z,5.53
2023-06-17T23:51:49.715Z,4.90
2023-06-17T23:54:16.822Z,4.95
2023-06-17T23:56:43.892Z,5.07
2023-06-17T23:59:11.050Z,4.85
